logo
Search for airport 
image banner adimage banner adimage banner ad
image banner ad

ED2373 - Chemnitz Klinikum

Located in , Germany

ICAO - , IATA -

Data provided by Airmate  

General information

Coordinates: N50°50'45" E12°53'7"
Elevation is 1141 feet MSL.
 
View others Airports in Saxony

Operational data

Special qualification required
Current time UTC:
Current local time:
Weather at : EDAC - Leipzig-Altenburg Airport ( 31 km )
METAR: EDAC 250420Z AUTO VRB01KT 9999 // NCD 13/11 Q1018
TAF: TAF EDAC 241700Z 2418/2503 VRB03KT CAVOK
View NOTAMs / SUP AIP / TFR affecting this airport [VIEW]
Communications frequencies: [VIEW]

Runways:

Airport contact information

Address: Germany

Satellite view of ED2373